Shelby, NC

1:01 PM EST on December 11, 2019 (GMT -0500)
Shelby Municipal

Weather History for KEHO - October, 2019

Change the Weather History Date:

Sunday, October 27, 2019

  Actual Average (KHKY) Record (KHKY)
Temperature  
Mean Temperature 70 °F -  
Max Temperature 81 °F 67 °F 83 °F (1963)
Min Temperature 60 °F 44 °F 24 °F (1962)
Cooling Degree Days 6    
Growing Degree Days 20 (Base 50)    
Moisture  
Dew Point 64 °F    
Average Humidity 77    
Maximum Humidity 100    
Minimum Humidity 41    
Precipitation  
Precipitation 0.36 in - - ()
Sea Level Pressure  
Sea Level Pressure 29.90 in    
Wind  
Wind Speed 6 mph (SSW)    
Max Wind Speed 12 mph    
Max Gust Speed 17 mph    
Visibility 10 miles    
Events Rain    
Averages and records for this station are not official NWS values.
T = Trace of Precipitation, MM = Missing Value Source: NWS Daily Summary

Daily Weather History Graph

Daily Weather History Graph

Search for Another Location

Airport or City:

Astronomy

Oct. 27, 2019 Rise Set
Actual Time 7:42 AM EDT 6:37 PM EDT
Civil Twilight 7:16 AM EDT 7:03 PM EDT
Nautical Twilight 6:47 AM EDT 7:32 PM EDT
Astronomical Twilight 6:17 AM EDT 8:02 PM EDT
Moon 6:53 AM EDT (10/27) 6:43 PM EDT (10/27)
Length of Visible Light 11h 46m
Length of Day
10h 54m
Waning Crescent, 0% of the Moon is Illuminated
Oct 27
Waning Crescent
Oct 27
New
Nov 4
First Quarter
Nov 12
Full
Nov 19
Last Quarter

Hourly Weather History & Observations

Time (EDT) Temp. Heat Index Dew Point Humidity Pressure Visibility Wind Dir Wind Speed Gust Speed Precip Events Conditions
12:15 AM 68.9 °F - 68.9 °F 100% 29.89 in 7.0 mi SSE 6.9 mph - N/A Rain Rain
12:35 AM 69.1 °F - 68.9 °F 99% 29.89 in 5.0 mi SSE 6.9 mph - 0.04 in Rain Rain
12:55 AM 69.4 °F - 69.3 °F 99% 29.88 in 10.0 mi SSE 6.9 mph - 0.05 in   Overcast
1:15 AM 69.4 °F - 69.4 °F 100% 29.87 in 5.0 mi SSE 9.2 mph - 0.01 in Rain Light Rain
1:35 AM 69.8 °F - 69.8 °F 100% 29.85 in 7.0 mi SSE 10.4 mph - 0.07 in Rain Rain
1:55 AM 70.0 °F - 70.0 °F 100% 29.86 in 5.0 mi South 11.5 mph - 0.09 in Rain Rain
2:15 AM 70.3 °F - 70.2 °F 99% 29.85 in 10.0 mi South 8.1 mph 16.1 mph 0.01 in   Overcast
2:35 AM 70.7 °F - 70.3 °F 99% 29.85 in 10.0 mi South 8.1 mph 17.3 mph 0.01 in   Overcast
2:55 AM 70.9 °F - 70.3 °F 98% 29.85 in 7.0 mi SSW 5.8 mph - 0.01 in Rain Light Rain
3:15 AM 71.1 °F - 70.7 °F 99% 29.84 in 7.0 mi South 9.2 mph - 0.01 in   Drizzle
3:35 AM 71.1 °F - 70.7 °F 99% 29.83 in 10.0 mi South 9.2 mph - 0.01 in   Overcast
3:55 AM 71.1 °F - 70.7 °F 99% 29.82 in 10.0 mi South 8.1 mph - 0.01 in   Overcast
4:15 AM 71.2 °F - 70.7 °F 98% 29.81 in 10.0 mi South 6.9 mph - N/A   Overcast
4:35 AM 71.1 °F - 70.7 °F 99% 29.81 in 10.0 mi South 4.6 mph - N/A   Overcast
4:55 AM 71.4 °F - 70.7 °F 98% 29.81 in 10.0 mi South 8.1 mph - N/A   Overcast
5:15 AM 71.6 °F - 70.7 °F 97% 29.81 in 10.0 mi South 6.9 mph - N/A   Overcast
5:35 AM 71.6 °F - 70.7 °F 97% 29.82 in 10.0 mi South 8.1 mph - N/A   Overcast
5:55 AM 71.4 °F - 70.7 °F 98% 29.81 in 7.0 mi South 9.2 mph - N/A   Drizzle
6:15 AM 71.1 °F - 70.7 °F 99% 29.82 in 10.0 mi SSW 6.9 mph - N/A Rain Rain
6:35 AM 70.9 °F - 70.7 °F 99% 29.83 in 4.0 mi West 10.4 mph - 0.14 in Rain Heavy Rain
6:55 AM 71.1 °F - 70.2 °F 97% 29.82 in 10.0 mi SSW 5.8 mph - 0.20 in   Overcast
7:15 AM 70.7 °F - 70.3 °F 99% 29.83 in 10.0 mi SSW 5.8 mph - N/A   Overcast
7:35 AM 70.7 °F - 69.8 °F 97% 29.84 in 10.0 mi SSW 5.8 mph - N/A   Mostly Cloudy
7:55 AM 70.0 °F - 69.1 °F 97% 29.84 in 10.0 mi SSW 8.1 mph - N/A   Mostly Cloudy
8:15 AM 69.4 °F - 68.2 °F 96% 29.85 in 10.0 mi SSW 5.8 mph - N/A   Mostly Cloudy
8:35 AM 68.5 °F - 68.0 °F 98% 29.87 in 10.0 mi SW 4.6 mph - N/A   Scattered Clouds
8:55 AM 68.9 °F - 68.4 °F 98% 29.88 in 10.0 mi SW 5.8 mph - N/A   Mostly Cloudy
9:15 AM 69.3 °F - 68.2 °F 96% 29.89 in 10.0 mi SW 6.9 mph - N/A   Overcast
9:35 AM 69.4 °F - 67.8 °F 95% 29.90 in 10.0 mi SW 6.9 mph - N/A   Mostly Cloudy
9:55 AM 69.8 °F - 67.3 °F 92% 29.90 in 10.0 mi SSW 8.1 mph - N/A   Scattered Clouds
10:15 AM 71.4 °F - 66.4 °F 84% 29.89 in 10.0 mi SW 8.1 mph - N/A   Scattered Clouds
10:35 AM 72.5 °F - 65.8 °F 80% 29.89 in 10.0 mi SSW 6.9 mph - N/A   Clear
10:55 AM 73.4 °F - 65.5 °F 76% 29.90 in 10.0 mi SW 8.1 mph - N/A   Clear
11:15 AM 74.1 °F - 64.6 °F 72% 29.90 in 10.0 mi WSW 9.2 mph - N/A   Clear
11:35 AM 74.3 °F - 64.6 °F 72% 29.91 in 10.0 mi WSW 4.6 mph - N/A   Clear
12:15 PM 75.0 °F - 64.6 °F 70% 29.91 in 10.0 mi WNW 4.6 mph - N/A   Scattered Clouds
12:35 PM 75.9 °F - 64.4 °F 67% 29.91 in 10.0 mi SSW 5.8 mph - N/A   Scattered Clouds
12:55 PM 76.6 °F - 64.6 °F 66% 29.90 in 10.0 mi SW 6.9 mph - N/A   Scattered Clouds
1:15 PM 77.5 °F - 63.0 °F 61% 29.90 in 10.0 mi SSW 5.8 mph - N/A   Scattered Clouds
1:35 PM 78.1 °F - 63.5 °F 61% 29.89 in 10.0 mi South 5.8 mph - N/A   Scattered Clouds
1:55 PM 77.5 °F - 62.8 °F 60% 29.89 in 10.0 mi West 4.6 mph - N/A   Mostly Cloudy
2:15 PM 79.2 °F - 62.4 °F 56% 29.89 in 10.0 mi SW 6.9 mph - N/A   Scattered Clouds
2:35 PM 78.6 °F - 61.9 °F 56% 29.89 in 10.0 mi West 4.6 mph - N/A   Clear
2:55 PM 79.9 °F - 62.2 °F 55% 29.89 in 10.0 mi Calm Calm - N/A   Mostly Cloudy
3:15 PM 80.4 °F 81.5 °F 62.1 °F 53% 29.89 in 10.0 mi West 3.5 mph - N/A   Scattered Clouds
3:35 PM 78.3 °F - 61.9 °F 57% 29.89 in 10.0 mi Calm Calm - N/A   Clear
3:55 PM 79.9 °F - 61.5 °F 53% 29.90 in 10.0 mi Calm Calm - N/A   Clear
4:15 PM 80.8 °F 81.4 °F 59.9 °F 49% 29.90 in 10.0 mi SW 5.8 mph - N/A   Scattered Clouds
4:35 PM 81.0 °F 81.5 °F 59.5 °F 48% 29.91 in 10.0 mi WNW 5.8 mph - N/A   Mostly Cloudy
4:55 PM 80.2 °F 81.1 °F 60.6 °F 51% 29.91 in 10.0 mi North 4.6 mph - N/A   Mostly Cloudy
5:15 PM 78.6 °F - 56.7 °F 47% 29.91 in 10.0 mi North 3.5 mph - N/A   Scattered Clouds
5:35 PM 79.9 °F - 54.3 °F 41% 29.92 in 10.0 mi NNW 4.6 mph - N/A   Clear
5:55 PM 79.0 °F - 53.4 °F 41% 29.92 in 10.0 mi NW 3.5 mph - N/A   Clear
6:15 PM 77.4 °F - 55.0 °F 46% 29.93 in 10.0 mi Calm Calm - N/A   Clear
6:35 PM 74.8 °F - 56.1 °F 52% 29.93 in 10.0 mi Calm Calm - N/A   Clear
6:55 PM 72.7 °F - 55.4 °F 55% 29.94 in 10.0 mi Calm Calm - N/A   Clear
7:15 PM 69.4 °F - 55.9 °F 62% 29.95 in 10.0 mi Calm Calm - N/A   Clear
7:35 PM 73.2 °F - 54.5 °F 52% 29.96 in 10.0 mi Calm Calm - N/A   Clear
7:55 PM 69.8 °F - 55.6 °F 61% 29.97 in 10.0 mi Calm Calm - N/A   Clear
8:15 PM 68.2 °F - 55.8 °F 64% 29.97 in 10.0 mi Calm Calm - N/A   Clear
8:35 PM 68.9 °F - 54.7 °F 60% 29.97 in 10.0 mi Calm Calm - N/A   Clear
8:55 PM 66.2 °F - 55.9 °F 69% 29.98 in 10.0 mi Calm Calm - N/A   Clear
9:35 PM 64.6 °F - 56.1 °F 74% 30.00 in 10.0 mi NE 3.5 mph - N/A   Clear
9:55 PM 66.7 °F - 54.3 °F 64% 30.01 in 10.0 mi East 4.6 mph - N/A   Clear
10:15 PM 67.6 °F - 53.6 °F 61% 30.01 in 10.0 mi East 8.1 mph - N/A   Clear
10:35 PM 66.2 °F - 53.6 °F 64% 30.03 in 10.0 mi ENE 6.9 mph - N/A   Clear
11:15 PM 63.9 °F - 53.8 °F 70% 30.03 in 10.0 mi ENE 5.8 mph - N/A   Clear
11:35 PM 60.8 °F - 54.3 °F 79% 30.03 in 10.0 mi NE 4.6 mph - N/A   Clear
11:55 PM 61.0 °F - 54.0 °F 78% 30.04 in 10.0 mi NE 4.6 mph - N/A   Clear